Time;durP1;ratioP1;P1;durP2;ratioP2;P2;SDS_P1;SDS_P2;PMS_P1;PMS_P2;Temp;Humidity;BMP_temperature;BMP_pressure;BME280_temperature;BME280_humidity;BME280_pressure;Samples;Min_cycle;Max_cycle;Signal;HPM_P1;HPM_P2
2023/06/01 00:00:32;;;;;;;13.65;10.38;;;15.40;99.90;;;;;;4881860;29;20181;-61
2023/06/01 00:02:58;;;;;;;15.80;10.63;;;15.40;99.90;;;;;;4881609;29;20596;-61
2023/06/01 00:05:23;;;;;;;13.98;10.48;;;15.20;99.90;;;;;;4881640;29;20193;-61
2023/06/01 00:07:49;;;;;;;15.35;9.88;;;15.30;99.90;;;;;;4881656;29;20212;-61
2023/06/01 00:10:15;;;;;;;12.48;10.15;;;15.30;99.90;;;;;;4881749;29;20181;-61
2023/06/01 00:12:40;;;;;;;15.07;9.73;;;15.10;99.90;;;;;;4881698;29;20181;-61
2023/06/01 00:15:06;;;;;;;13.50;11.00;;;15.10;99.90;;;;;;4881446;29;20754;-61
2023/06/01 00:17:32;;;;;;;12.38;9.75;;;15.10;99.90;;;;;;4881412;29;20188;-61
2023/06/01 00:20:00;;;;;;;15.82;10.02;;;15.10;99.90;;;;;;4881399;29;20185;-61
2023/06/01 00:22:34;;;;;;;16.27;11.05;;;15.00;99.90;;;;;;4881474;29;20193;-61
2023/06/01 00:25:00;;;;;;;11.65;10.13;;;15.00;99.90;;;;;;4881419;29;20795;-61
2023/06/01 00:27:25;;;;;;;14.93;10.95;;;15.10;99.90;;;;;;4881500;29;20177;-61
2023/06/01 00:29:51;;;;;;;16.08;10.88;;;15.00;99.90;;;;;;4881580;29;20673;-61
2023/06/01 00:32:17;;;;;;;14.00;10.52;;;15.00;99.90;;;;;;4881061;29;20225;-60
2023/06/01 00:34:42;;;;;;;13.85;10.95;;;14.90;99.90;;;;;;4881143;29;20234;-61
2023/06/01 00:37:08;;;;;;;13.13;10.65;;;14.90;99.90;;;;;;4880623;29;20181;-61
2023/06/01 00:39:34;;;;;;;14.40;10.48;;;14.90;99.90;;;;;;4881237;29;20220;-61
2023/06/01 00:42:00;;;;;;;12.80;10.45;;;14.90;99.90;;;;;;4864681;29;20615;-61
2023/06/01 00:44:25;;;;;;;14.05;11.52;;;14.90;99.90;;;;;;4881081;29;20181;-61
2023/06/01 00:46:52;;;;;;;12.93;10.68;;;14.80;99.90;;;;;;4880948;29;20670;-61
2023/06/01 00:49:18;;;;;;;14.55;11.13;;;14.80;99.90;;;;;;4880915;29;20182;-61
2023/06/01 00:51:44;;;;;;;13.30;10.52;;;14.70;99.90;;;;;;4880751;29;20236;-61
2023/06/01 00:54:11;;;;;;;13.73;10.93;;;14.50;99.90;;;;;;4880957;29;20639;-62
2023/06/01 00:56:37;;;;;;;12.88;9.48;;;14.70;99.90;;;;;;4880793;29;20197;-61
2023/06/01 00:59:03;;;;;;;14.15;10.02;;;14.60;99.90;;;;;;4880886;29;20210;-61
2023/06/01 01:01:28;;;;;;;15.23;10.65;;;14.60;99.90;;;;;;4880631;29;20200;-61
2023/06/01 01:03:57;;;;;;;13.18;9.73;;;14.50;99.90;;;;;;4880773;29;20308;-61
2023/06/01 01:06:50;;;;;;;13.65;10.38;;;14.50;99.90;;;;;;4880748;29;20184;-60
2023/06/01 01:10:00;;;;;;;12.68;10.80;;;14.40;99.90;;;;;;4880675;29;20242;-61
2023/06/01 01:12:37;;;;;;;12.63;10.18;;;14.50;99.90;;;;;;4869202;29;20695;-61
2023/06/01 01:15:17;;;;;;;14.27;10.80;;;14.40;99.90;;;;;;4880631;29;20176;-60
2023/06/01 01:17:47;;;;;;;15.77;10.95;;;14.40;99.90;;;;;;4880451;29;20177;-60
2023/06/01 01:20:22;;;;;;;17.17;10.75;;;14.50;99.90;;;;;;4880325;29;20190;-61
2023/06/01 01:22:47;;;;;;;12.00;10.68;;;14.30;99.90;;;;;;4880498;29;20619;-60
2023/06/01 01:25:19;;;;;;;12.10;10.00;;;14.30;99.90;;;;;;4880378;29;20208;-61
2023/06/01 01:27:59;;;;;;;12.82;9.98;;;14.30;99.90;;;;;;4880284;29;20192;-61
2023/06/01 01:30:28;;;;;;;16.42;10.32;;;14.40;99.90;;;;;;4880172;29;20231;-61
2023/06/01 01:32:56;;;;;;;13.93;10.30;;;14.30;99.90;;;;;;4880101;29;20225;-61
2023/06/01 01:35:24;;;;;;;14.15;10.95;;;14.30;99.90;;;;;;4880071;29;20252;-61
2023/06/01 01:37:54;;;;;;;13.65;10.88;;;14.30;99.90;;;;;;4880232;29;20212;-61
2023/06/01 01:40:20;;;;;;;13.10;10.88;;;14.20;99.90;;;;;;4880051;29;20188;-61
2023/06/01 01:42:47;;;;;;;14.05;10.88;;;14.30;99.90;;;;;;4880005;29;20182;-61
2023/06/01 01:45:14;;;;;;;13.45;10.77;;;14.20;99.90;;;;;;4879925;29;20184;-61
2023/06/01 01:47:55;;;;;;;13.88;10.23;;;14.10;99.90;;;;;;4863254;29;20181;-60
2023/06/01 01:50:26;;;;;;;14.20;11.05;;;14.00;99.90;;;;;;4879885;29;20188;-61
2023/06/01 01:52:53;;;;;;;14.05;11.50;;;14.00;99.90;;;;;;4880046;29;20174;-61
2023/06/01 01:55:23;;;;;;;14.95;11.50;;;14.10;99.90;;;;;;4880069;29;20205;-61
2023/06/01 01:57:51;;;;;;;16.02;11.65;;;14.00;99.90;;;;;;4879743;29;20260;-61
2023/06/01 02:00:17;;;;;;;14.40;11.20;;;14.00;99.90;;;;;;4879960;29;20272;-61
2023/06/01 02:02:45;;;;;;;13.27;11.27;;;14.10;99.90;;;;;;4879632;29;20268;-61
2023/06/01 02:05:11;;;;;;;13.30;10.57;;;13.90;99.90;;;;;;4879863;29;20553;-61
2023/06/01 02:07:37;;;;;;;15.68;11.77;;;13.90;99.90;;;;;;4879642;29;20200;-61
2023/06/01 02:10:02;;;;;;;13.57;11.18;;;13.80;99.90;;;;;;4879949;29;20296;-60
2023/06/01 02:12:28;;;;;;;14.57;11.35;;;13.80;99.90;;;;;;4879483;29;20276;-61
2023/06/01 02:14:54;;;;;;;15.60;12.10;;;13.80;99.90;;;;;;4880020;29;20185;-63
2023/06/01 02:17:21;;;;;;;13.18;11.00;;;13.80;99.90;;;;;;4879637;29;20185;-61
2023/06/01 02:19:47;;;;;;;14.20;11.80;;;13.70;99.90;;;;;;4879510;29;20655;-60
2023/06/01 02:22:13;;;;;;;12.32;10.93;;;13.80;99.90;;;;;;4879469;29;20273;-61
2023/06/01 02:24:39;;;;;;;15.07;12.27;;;13.70;99.90;;;;;;4879531;29;20263;-60
2023/06/01 02:27:05;;;;;;;11.70;10.50;;;13.80;99.90;;;;;;4879400;29;20177;-60
2023/06/01 02:29:31;;;;;;;15.15;11.50;;;13.80;99.90;;;;;;4879955;29;20185;-60
2023/06/01 02:31:57;;;;;;;17.10;11.80;;;13.70;99.90;;;;;;4879414;29;20227;-60
2023/06/01 02:34:22;;;;;;;15.88;11.93;;;13.60;99.90;;;;;;4879490;29;20317;-61
2023/06/01 02:36:48;;;;;;;13.68;11.43;;;13.70;99.90;;;;;;4879480;29;20188;-61
2023/06/01 02:39:14;;;;;;;14.65;11.95;;;13.50;99.90;;;;;;4879351;29;20174;-60
2023/06/01 02:41:40;;;;;;;13.52;11.48;;;13.60;99.90;;;;;;4879288;29;20190;-60
2023/06/01 02:44:05;;;;;;;15.63;12.32;;;13.50;99.90;;;;;;4879533;29;20197;-60
2023/06/01 02:46:31;;;;;;;14.40;12.10;;;13.50;99.90;;;;;;4879278;29;20534;-61
2023/06/01 02:48:57;;;;;;;15.35;12.27;;;13.40;99.90;;;;;;4879358;29;20189;-60
2023/06/01 02:51:22;;;;;;;14.77;12.35;;;13.40;99.90;;;;;;4879265;29;20240;-60
2023/06/01 02:53:48;;;;;;;16.45;12.25;;;13.50;99.90;;;;;;4879242;29;20178;-61
2023/06/01 02:56:15;;;;;;;23.30;13.55;;;13.40;99.90;;;;;;4879143;29;20252;-61
2023/06/01 02:58:41;;;;;;;14.75;11.80;;;13.50;99.90;;;;;;4879469;29;20213;-62
2023/06/01 03:01:11;;;;;;;15.52;12.35;;;13.40;99.90;;;;;;4864298;29;20512;-61
2023/06/01 03:03:37;;;;;;;14.40;11.77;;;13.30;99.90;;;;;;4875505;29;20241;-61
2023/06/01 03:06:05;;;;;;;17.52;12.40;;;13.30;99.90;;;;;;4883071;29;20177;-61
2023/06/01 03:08:30;;;;;;;16.00;13.00;;;13.30;99.90;;;;;;4882667;29;20189;-61
2023/06/01 03:10:56;;;;;;;16.25;12.93;;;13.10;99.90;;;;;;4882405;29;20209;-61
2023/06/01 03:13:22;;;;;;;15.38;12.63;;;13.10;99.90;;;;;;4882905;29;20192;-61
2023/06/01 03:15:48;;;;;;;14.85;12.35;;;13.00;99.90;;;;;;4882821;29;20190;-61
2023/06/01 03:18:14;;;;;;;17.65;12.63;;;13.10;99.90;;;;;;4882597;29;20193;-61
2023/06/01 03:20:39;;;;;;;15.05;12.88;;;12.90;99.90;;;;;;4882476;29;20185;-61
2023/06/01 03:23:05;;;;;;;18.23;12.70;;;12.90;99.90;;;;;;4882528;29;20181;-61
2023/06/01 03:25:30;;;;;;;13.65;12.23;;;13.00;99.90;;;;;;4882328;29;20182;-61
2023/06/01 03:27:56;;;;;;;17.88;13.30;;;13.00;99.90;;;;;;4882510;29;20181;-61
2023/06/01 03:30:22;;;;;;;19.05;13.48;;;13.00;99.90;;;;;;4882234;29;20205;-61
2023/06/01 03:32:47;;;;;;;13.43;11.82;;;13.00;99.90;;;;;;4882404;29;20178;-61
2023/06/01 03:35:14;;;;;;;17.85;12.80;;;13.00;99.90;;;;;;4882329;29;20232;-61
2023/06/01 03:37:41;;;;;;;19.40;12.45;;;12.90;99.90;;;;;;4882198;29;20268;-61
2023/06/01 03:40:11;;;;;;;17.00;12.52;;;12.90;99.90;;;;;;4882071;29;20280;-61
2023/06/01 03:42:40;;;;;;;15.70;12.48;;;12.90;99.90;;;;;;4882447;29;20238;-61
2023/06/01 03:45:06;;;;;;;16.48;12.70;;;12.80;99.90;;;;;;4882234;29;20174;-61
2023/06/01 03:47:32;;;;;;;15.70;12.77;;;12.80;99.90;;;;;;4882153;29;20181;-61
2023/06/01 03:49:58;;;;;;;17.73;12.85;;;12.90;99.90;;;;;;4882099;29;20580;-61
2023/06/01 03:52:25;;;;;;;19.17;13.52;;;12.90;99.90;;;;;;4881888;29;20265;-61
2023/06/01 03:54:51;;;;;;;17.83;13.25;;;12.80;99.90;;;;;;4881882;29;20264;-61
2023/06/01 03:57:17;;;;;;;17.42;13.45;;;12.80;99.90;;;;;;4882265;29;20189;-61
2023/06/01 03:59:43;;;;;;;19.83;14.93;;;12.70;99.90;;;;;;4881936;29;20173;-61
2023/06/01 04:02:09;;;;;;;17.77;13.13;;;12.90;99.90;;;;;;4881929;29;20647;-61
2023/06/01 04:04:35;;;;;;;17.42;14.20;;;12.70;99.90;;;;;;4881915;29;20595;-62
2023/06/01 04:07:02;;;;;;;18.15;14.52;;;12.70;99.90;;;;;;4881664;29;20181;-62
2023/06/01 04:09:29;;;;;;;18.95;14.57;;;12.70;99.90;;;;;;4881781;29;20193;-61
2023/06/01 04:11:55;;;;;;;22.83;16.02;;;12.80;99.90;;;;;;4880881;29;20278;-61
2023/06/01 04:14:21;;;;;;;17.08;15.05;;;12.90;99.90;;;;;;4881459;29;20591;-61
2023/06/01 04:16:46;;;;;;;18.75;15.50;;;12.80;99.90;;;;;;4881624;29;20209;-61
2023/06/01 04:19:12;;;;;;;20.17;16.05;;;12.80;99.90;;;;;;4881509;29;20213;-61
2023/06/01 04:21:37;;;;;;;20.13;17.23;;;12.80;99.90;;;;;;4881475;29;20185;-61
2023/06/01 04:24:03;;;;;;;25.10;19.90;;;12.80;99.90;;;;;;4881686;29;20188;-61
2023/06/01 04:26:31;;;;;;;25.90;18.90;;;12.80;99.90;;;;;;4881605;29;20186;-61
2023/06/01 04:28:58;;;;;;;23.80;19.05;;;12.70;99.90;;;;;;4881414;29;20181;-61
2023/06/01 04:31:24;;;;;;;25.23;20.05;;;12.60;99.90;;;;;;4881197;29;20249;-61
2023/06/01 04:33:53;;;;;;;30.02;21.90;;;12.60;99.90;;;;;;4881172;29;20228;-61
2023/06/01 04:36:23;;;;;;;27.48;20.83;;;12.60;99.90;;;;;;4881064;29;20254;-61
2023/06/01 04:38:54;;;;;;;29.98;21.55;;;12.50;99.90;;;;;;4881263;29;20182;-61
2023/06/01 04:41:23;;;;;;;25.30;20.50;;;12.60;99.90;;;;;;4881213;29;20240;-61
2023/06/01 04:43:52;;;;;;;27.88;19.25;;;12.60;99.90;;;;;;4881154;29;20177;-61
2023/06/01 04:46:23;;;;;;;26.75;20.70;;;12.60;99.90;;;;;;4873311;29;20269;-61
2023/06/01 04:48:51;;;;;;;27.60;21.08;;;12.70;99.90;;;;;;4862279;29;20643;-61
2023/06/01 04:51:21;;;;;;;28.75;21.90;;;12.70;99.90;;;;;;4862489;29;20230;-61
2023/06/01 04:53:51;;;;;;;31.58;23.67;;;12.70;99.90;;;;;;4862514;29;20174;-61
2023/06/01 04:56:18;;;;;;;30.40;23.90;;;12.70;99.90;;;;;;4862251;29;20193;-61
2023/06/01 04:58:45;;;;;;;30.13;23.70;;;12.60;99.90;;;;;;4862275;29;20182;-61
2023/06/01 05:01:15;;;;;;;34.47;25.85;;;12.50;99.90;;;;;;4862635;29;20185;-61
2023/06/01 05:03:45;;;;;;;35.58;23.92;;;12.40;99.90;;;;;;4861913;29;20711;-58
2023/06/01 05:06:12;;;;;;;35.88;26.90;;;12.60;99.90;;;;;;4862171;29;20648;-58
2023/06/01 05:08:39;;;;;;;38.03;28.15;;;12.70;99.90;;;;;;4862049;29;20257;-60
2023/06/01 05:11:06;;;;;;;36.40;26.83;;;12.70;99.90;;;;;;4845559;29;20213;-58
2023/06/01 05:13:33;;;;;;;34.72;26.92;;;12.80;99.90;;;;;;4862160;29;20205;-59
2023/06/01 05:15:59;;;;;;;35.10;26.98;;;12.70;99.90;;;;;;4861840;29;20174;-58
2023/06/01 05:18:25;;;;;;;37.22;28.35;;;12.60;99.90;;;;;;4862022;29;20541;-58
2023/06/01 05:20:51;;;;;;;33.50;26.42;;;12.50;99.90;;;;;;4861883;29;20636;-59
2023/06/01 05:23:17;;;;;;;35.05;27.60;;;12.40;99.90;;;;;;4861499;29;20666;-59
2023/06/01 05:25:42;;;;;;;36.75;29.45;;;12.50;99.90;;;;;;4861863;29;20178;-59
2023/06/01 05:28:08;;;;;;;34.05;28.00;;;12.60;99.90;;;;;;4845108;29;20281;-58
2023/06/01 05:30:34;;;;;;;38.53;28.85;;;12.60;99.90;;;;;;4861431;29;20186;-57
2023/06/01 05:32:59;;;;;;;36.78;28.27;;;12.60;99.90;;;;;;4861805;29;20206;-58
2023/06/01 05:35:25;;;;;;;36.92;28.35;;;12.50;99.90;;;;;;4861727;29;20230;-61
2023/06/01 05:37:50;;;;;;;30.75;25.17;;;12.60;99.90;;;;;;4861538;29;20540;-57
2023/06/01 05:40:16;;;;;;;34.10;25.27;;;12.60;99.90;;;;;;4861556;29;20194;-57
2023/06/01 05:42:42;;;;;;;35.28;28.23;;;12.70;99.90;;;;;;4861610;29;20265;-58
2023/06/01 05:45:09;;;;;;;38.10;29.65;;;12.60;99.90;;;;;;4844753;29;20217;-59
2023/06/01 05:47:35;;;;;;;36.78;29.23;;;12.70;99.90;;;;;;4861808;29;20257;-58
2023/06/01 05:50:01;;;;;;;39.20;30.00;;;12.80;99.90;;;;;;4861562;29;20633;-58
2023/06/01 05:52:27;;;;;;;35.40;28.83;;;12.70;99.90;;;;;;4861358;29;20324;-60
2023/06/01 05:54:53;;;;;;;36.28;30.20;;;12.80;99.90;;;;;;4861283;29;20620;-60
2023/06/01 05:57:20;;;;;;;42.05;32.55;;;13.00;99.90;;;;;;4861147;29;20655;-58
2023/06/01 05:59:46;;;;;;;39.17;32.42;;;12.90;99.90;;;;;;4861233;29;20272;-58
2023/06/01 06:02:13;;;;;;;38.70;32.25;;;12.80;99.90;;;;;;4861373;29;20715;-58
2023/06/01 06:04:39;;;;;;;33.08;27.50;;;12.70;99.90;;;;;;4861071;29;20230;-58
2023/06/01 06:07:05;;;;;;;31.27;25.13;;;12.70;99.90;;;;;;4844662;29;20547;-58
2023/06/01 06:09:30;;;;;;;31.05;25.08;;;12.70;99.90;;;;;;4861089;29;20190;-60
2023/06/01 06:11:56;;;;;;;31.20;26.02;;;12.60;99.90;;;;;;4844506;29;20699;-58
2023/06/01 06:14:22;;;;;;;32.40;26.10;;;12.70;99.90;;;;;;4861052;29;20182;-58
2023/06/01 06:16:48;;;;;;;31.58;26.33;;;12.60;99.90;;;;;;4861421;29;20417;-58
2023/06/01 06:19:15;;;;;;;32.05;25.85;;;12.80;99.90;;;;;;4861149;29;20711;-58
2023/06/01 06:21:42;;;;;;;30.95;26.40;;;12.90;99.90;;;;;;4861038;29;20346;-58
2023/06/01 06:24:07;;;;;;;32.92;26.95;;;13.10;99.90;;;;;;4861028;29;20185;-58
2023/06/01 06:26:33;;;;;;;31.42;25.48;;;13.20;99.90;;;;;;4860928;29;20182;-58
2023/06/01 06:28:59;;;;;;;29.70;24.63;;;13.30;99.90;;;;;;4860820;29;20186;-58
2023/06/01 06:31:24;;;;;;;29.27;23.65;;;13.40;99.90;;;;;;4860932;29;20273;-58
2023/06/01 06:33:51;;;;;;;30.33;24.25;;;13.40;99.90;;;;;;4861017;29;20611;-60
2023/06/01 06:36:20;;;;;;;29.02;23.58;;;13.50;99.90;;;;;;4862721;29;20194;-57
2023/06/01 06:38:46;;;;;;;29.33;23.83;;;13.50;99.90;;;;;;4864699;29;20273;-60
2023/06/01 06:41:12;;;;;;;26.92;23.95;;;13.50;99.90;;;;;;4864631;29;20276;-58
2023/06/01 06:43:38;;;;;;;28.42;25.00;;;13.60;99.90;;;;;;4864559;29;20186;-58
2023/06/01 06:46:03;;;;;;;36.92;30.23;;;13.70;99.90;;;;;;4864657;29;20181;-57
2023/06/01 06:48:29;;;;;;;38.03;32.95;;;13.80;99.90;;;;;;4864593;29;20599;-58
2023/06/01 06:50:55;;;;;;;40.95;34.10;;;13.80;99.90;;;;;;4864526;29;20214;-58
2023/06/01 06:53:21;;;;;;;42.28;35.58;;;13.90;99.90;;;;;;4864478;29;20190;-58
2023/06/01 06:55:47;;;;;;;38.28;32.65;;;14.00;99.90;;;;;;4864414;29;20683;-57
2023/06/01 06:58:13;;;;;;;41.08;33.15;;;14.00;99.90;;;;;;4864128;29;20235;-58
2023/06/01 07:00:39;;;;;;;34.10;29.45;;;14.10;99.90;;;;;;4864319;29;20264;-58
2023/06/01 07:03:06;;;;;;;25.63;22.25;;;14.10;99.90;;;;;;4864113;29;20186;-58
2023/06/01 07:05:31;;;;;;;27.30;22.55;;;14.10;99.90;;;;;;4864313;29;20185;-58
2023/06/01 07:07:57;;;;;;;28.25;25.20;;;14.20;99.90;;;;;;4864232;29;20633;-58
2023/06/01 07:10:23;;;;;;;28.98;25.90;;;14.30;99.90;;;;;;4864350;29;20182;-57
2023/06/01 07:12:48;;;;;;;33.58;29.88;;;14.40;99.90;;;;;;4863839;29;20236;-58
2023/06/01 07:15:16;;;;;;;31.20;27.80;;;14.50;99.90;;;;;;4864213;29;20193;-59
2023/06/01 07:17:41;;;;;;;31.20;27.20;;;14.40;99.90;;;;;;4864143;29;20529;-57
2023/06/01 07:20:11;;;;;;;25.90;21.85;;;14.50;99.90;;;;;;4864048;29;20186;-57
2023/06/01 07:22:37;;;;;;;22.33;18.88;;;14.80;99.90;;;;;;4863960;29;20190;-58
2023/06/01 07:25:05;;;;;;;24.23;20.13;;;14.90;99.90;;;;;;4863870;29;20186;-57
2023/06/01 07:27:31;;;;;;;25.13;18.83;;;14.90;99.90;;;;;;4863755;29;20193;-58
2023/06/01 07:29:57;;;;;;;21.42;17.58;;;15.10;99.90;;;;;;4847478;29;20266;-58
2023/06/01 07:32:23;;;;;;;19.73;15.82;;;15.00;99.90;;;;;;4863908;29;20305;-57
2023/06/01 07:34:49;;;;;;;17.83;15.63;;;15.00;99.90;;;;;;4863736;29;20178;-57
2023/06/01 07:37:15;;;;;;;18.17;14.95;;;14.90;99.90;;;;;;4863733;29;20219;-57
2023/06/01 07:39:41;;;;;;;17.17;13.95;;;15.20;99.90;;;;;;4863560;29;20185;-57
2023/06/01 07:42:07;;;;;;;17.27;14.63;;;15.30;99.90;;;;;;4863497;29;20182;-57
2023/06/01 07:44:33;;;;;;;19.92;14.63;;;15.50;99.90;;;;;;4863609;29;20640;-58
2023/06/01 07:46:58;;;;;;;15.77;14.07;;;15.70;99.90;;;;;;4863413;29;20186;-57
2023/06/01 07:49:24;;;;;;;14.27;12.77;;;15.90;99.90;;;;;;4863441;29;20215;-58
2023/06/01 07:51:51;;;;;;;14.85;11.90;;;15.90;99.90;;;;;;4863246;29;20261;-57
2023/06/01 07:54:18;;;;;;;12.80;11.10;;;16.00;99.90;;;;;;4863383;29;20190;-57
2023/06/01 07:56:44;;;;;;;13.18;11.55;;;16.10;99.90;;;;;;4863209;29;20205;-58
2023/06/01 07:59:09;;;;;;;14.30;11.20;;;16.10;99.90;;;;;;4863445;29;20182;-58
2023/06/01 08:01:36;;;;;;;13.15;10.70;;;16.30;99.90;;;;;;4863273;29;20182;-57
2023/06/01 08:04:01;;;;;;;12.60;10.90;;;16.30;99.90;;;;;;4863340;29;20290;-57
2023/06/01 08:06:28;;;;;;;12.68;10.90;;;16.30;99.90;;;;;;4863169;29;20194;-57
2023/06/01 08:08:54;;;;;;;15.27;10.98;;;16.60;99.90;;;;;;4863162;29;20185;-57
2023/06/01 08:11:21;;;;;;;13.45;10.88;;;16.60;99.90;;;;;;4862876;29;20313;-59
2023/06/01 08:13:47;;;;;;;15.88;10.63;;;16.80;99.90;;;;;;4863355;29;20186;-57
2023/06/01 08:16:13;;;;;;;14.90;11.38;;;17.10;99.90;;;;;;4863257;29;20326;-58
2023/06/01 08:18:39;;;;;;;19.55;10.95;;;17.30;99.90;;;;;;4863024;29;20685;-57
2023/06/01 08:21:05;;;;;;;14.90;10.80;;;17.60;99.90;;;;;;4862968;29;20193;-57
2023/06/01 08:23:31;;;;;;;13.60;10.60;;;17.40;99.90;;;;;;4862923;29;20189;-57
2023/06/01 08:25:56;;;;;;;17.50;11.20;;;17.30;99.90;;;;;;4862696;29;20190;-58
2023/06/01 08:28:22;;;;;;;11.93;10.20;;;17.50;99.90;;;;;;4862915;29;20174;-57
2023/06/01 08:30:48;;;;;;;13.73;10.77;;;17.50;99.90;;;;;;4863175;29;20716;-57
2023/06/01 08:33:14;;;;;;;11.98;10.25;;;17.70;99.90;;;;;;4863122;29;20178;-57
2023/06/01 08:35:40;;;;;;;12.20;10.30;;;17.60;99.90;;;;;;4862726;29;20659;-56
2023/06/01 08:38:05;;;;;;;15.13;10.20;;;17.70;99.90;;;;;;4862704;29;20182;-57
2023/06/01 08:40:31;;;;;;;13.00;10.18;;;17.90;99.90;;;;;;4862508;29;20530;-57
2023/06/01 08:43:18;;;;;;;14.93;10.48;;;18.00;99.90;;;;;;4862813;29;20719;-57
2023/06/01 08:45:45;;;;;;;10.68;9.30;;;18.10;99.90;;;;;;4862530;29;20170;-58
2023/06/01 08:48:17;;;;;;;13.60;10.07;;;18.00;99.90;;;;;;4862508;29;20182;-57
2023/06/01 08:50:48;;;;;;;13.18;9.57;;;18.10;99.90;;;;;;4862588;29;20662;-57
2023/06/01 08:53:18;;;;;;;13.10;9.75;;;18.30;99.90;;;;;;4862529;29;20169;-58
2023/06/01 08:55:53;;;;;;;11.68;9.02;;;18.40;99.90;;;;;;4862392;29;20186;-58
2023/06/01 08:58:19;;;;;;;11.90;9.50;;;18.30;99.90;;;;;;4861977;29;20302;-57
2023/06/01 09:00:48;;;;;;;9.82;8.85;;;18.20;99.90;;;;;;4862178;29;20297;-58
2023/06/01 09:03:14;;;;;;;13.98;10.25;;;18.40;99.90;;;;;;4861993;29;20265;-58
2023/06/01 09:05:40;;;;;;;11.07;9.63;;;18.40;99.90;;;;;;4845433;29;20216;-58
2023/06/01 09:08:07;;;;;;;14.40;10.00;;;18.30;99.90;;;;;;4862414;29;20193;-58
2023/06/01 09:10:32;;;;;;;15.30;10.68;;;18.50;99.90;;;;;;4862100;29;20181;-58
2023/06/01 09:13:00;;;;;;;12.70;9.90;;;18.90;99.90;;;;;;4862149;29;20648;-57
2023/06/01 09:15:25;;;;;;;13.05;10.75;;;18.60;99.90;;;;;;4862122;29;20218;-57
2023/06/01 09:18:03;;;;;;;12.70;10.32;;;18.60;99.90;;;;;;4862074;29;20701;-58
2023/06/01 09:20:31;;;;;;;15.63;11.20;;;18.70;99.90;;;;;;4862048;29;20170;-58
2023/06/01 09:22:57;;;;;;;13.00;10.70;;;18.80;99.90;;;;;;4862041;29;20186;-58
2023/06/01 09:25:33;;;;;;;13.75;10.02;;;19.00;99.90;;;;;;4861800;29;20722;-58
2023/06/01 09:28:01;;;;;;;13.18;10.13;;;19.00;99.90;;;;;;4861807;29;20273;-58
2023/06/01 09:30:42;;;;;;;15.43;10.70;;;19.10;99.90;;;;;;4861514;29;20552;-58
2023/06/01 09:33:21;;;;;;;15.23;10.85;;;19.10;99.90;;;;;;4861564;29;20644;-57
2023/06/01 09:35:48;;;;;;;15.20;11.02;;;19.40;99.90;;;;;;4861749;29;20192;-58
2023/06/01 09:38:25;;;;;;;13.93;10.48;;;19.60;99.90;;;;;;4861502;29;20174;-58
2023/06/01 09:41:02;;;;;;;13.82;11.38;;;19.50;99.90;;;;;;4861716;29;20229;-57
2023/06/01 09:43:36;;;;;;;12.80;10.02;;;19.80;99.90;;;;;;4861622;29;20189;-58
2023/06/01 09:46:13;;;;;;;14.35;11.25;;;20.10;99.90;;;;;;4845453;29;20667;-58
2023/06/01 09:48:40;;;;;;;13.98;11.13;;;19.90;99.90;;;;;;4861542;29;20218;-58
2023/06/01 09:51:22;;;;;;;14.25;10.68;;;19.90;99.90;;;;;;4844753;29;20545;-58
2023/06/01 09:53:47;;;;;;;13.85;10.95;;;19.90;99.90;;;;;;4861490;29;20185;-58
2023/06/01 09:56:13;;;;;;;15.30;10.70;;;20.00;99.90;;;;;;4861791;29;20182;-58
2023/06/01 09:58:40;;;;;;;14.68;11.02;;;20.00;99.90;;;;;;4861679;29;20692;-58
2023/06/01 10:01:08;;;;;;;14.15;11.27;;;20.30;99.90;;;;;;4861208;29;20629;-58
2023/06/01 10:03:36;;;;;;;13.88;11.23;;;20.20;99.90;;;;;;4861130;29;20236;-57
2023/06/01 10:06:03;;;;;;;12.10;10.90;;;20.00;99.90;;;;;;4861065;29;20185;-58
2023/06/01 10:08:30;;;;;;;14.50;11.30;;;20.00;99.90;;;;;;4861266;29;20178;-58
2023/06/01 10:10:56;;;;;;;16.05;11.00;;;20.00;99.90;;;;;;4860341;29;20296;-58
2023/06/01 10:13:24;;;;;;;18.42;11.10;;;20.00;99.90;;;;;;4861173;29;20269;-58
2023/06/01 10:15:54;;;;;;;15.13;11.43;;;19.60;99.90;;;;;;4861091;29;20196;-58
2023/06/01 10:18:21;;;;;;;17.08;10.88;;;19.60;99.90;;;;;;4860911;29;20261;-59
2023/06/01 10:20:46;;;;;;;15.35;11.52;;;19.70;99.90;;;;;;4861262;29;20201;-57
2023/06/01 10:23:12;;;;;;;16.27;11.18;;;19.60;99.90;;;;;;4861109;29;20182;-58
2023/06/01 10:25:47;;;;;;;15.45;11.45;;;19.50;99.90;;;;;;4860896;29;20209;-58
2023/06/01 10:28:14;;;;;;;14.48;10.88;;;19.70;99.90;;;;;;4861197;29;20185;-58
2023/06/01 10:30:40;;;;;;;14.85;11.52;;;19.60;99.90;;;;;;4860901;29;20221;-58
2023/06/01 10:33:06;;;;;;;14.55;11.00;;;19.70;99.90;;;;;;4860825;29;20200;-58
2023/06/01 10:35:41;;;;;;;16.25;10.85;;;19.90;99.90;;;;;;4860994;29;20338;-58
2023/06/01 10:38:07;;;;;;;16.98;10.68;;;20.10;99.90;;;;;;4861056;29;20200;-58
2023/06/01 10:40:46;;;;;;;14.68;10.80;;;20.10;99.90;;;;;;4860900;29;20536;-58
2023/06/01 10:43:36;;;;;;;17.75;12.13;;;20.30;99.90;;;;;;4860725;29;20648;-58
2023/06/01 10:46:02;;;;;;;14.70;11.40;;;20.70;99.70;;;;;;4860960;29;20213;-58
2023/06/01 10:48:56;;;;;;;13.93;10.52;;;20.30;99.90;;;;;;4861149;29;20213;-58
2023/06/01 10:51:25;;;;;;;15.93;11.40;;;20.10;99.90;;;;;;4860696;29;20205;-58
2023/06/01 10:53:55;;;;;;;15.23;10.63;;;20.20;99.90;;;;;;4860608;29;20181;-58
2023/06/01 10:56:27;;;;;;;15.00;10.70;;;20.60;99.90;;;;;;4860774;29;20244;-58
2023/06/01 10:59:10;;;;;;;15.02;10.57;;;20.70;99.10;;;;;;4860638;29;20206;-58
2023/06/01 11:01:43;;;;;;;13.23;10.25;;;20.60;99.20;;;;;;4860630;29;20186;-58
2023/06/01 11:04:10;;;;;;;12.85;10.75;;;20.80;99.60;;;;;;4860766;29;20324;-59
2023/06/01 11:06:40;;;;;;;14.80;11.07;;;20.50;99.20;;;;;;4860478;29;20190;-58
2023/06/01 11:09:07;;;;;;;14.02;10.27;;;20.30;99.40;;;;;;4860866;29;20183;-58
2023/06/01 11:11:48;;;;;;;13.00;9.93;;;20.50;99.90;;;;;;4853010;29;20688;-59
2023/06/01 11:14:15;;;;;;;17.58;11.02;;;20.60;98.70;;;;;;4860490;29;20659;-58
2023/06/01 11:16:41;;;;;;;12.70;10.00;;;20.40;99.00;;;;;;4860509;29;20178;-58
2023/06/01 11:19:08;;;;;;;13.02;10.63;;;20.50;99.40;;;;;;4860625;29;20178;-58
2023/06/01 11:21:43;;;;;;;14.10;10.05;;;20.70;99.80;;;;;;4861208;29;20190;-58
2023/06/01 11:24:14;;;;;;;15.57;10.38;;;21.10;99.80;;;;;;4864070;29;20537;-59
2023/06/01 11:26:45;;;;;;;16.30;10.15;;;21.30;99.50;;;;;;4863786;29;20182;-58
2023/06/01 11:29:18;;;;;;;15.10;10.30;;;21.10;98.30;;;;;;4863787;29;20182;-58
2023/06/01 11:31:55;;;;;;;14.57;9.85;;;21.30;98.30;;;;;;4863907;29;20269;-59
2023/06/01 11:34:43;;;;;;;13.73;10.13;;;21.40;97.70;;;;;;4863962;29;20177;-59
2023/06/01 11:37:17;;;;;;;12.77;9.75;;;21.30;97.90;;;;;;4863643;29;20189;-58
2023/06/01 11:39:44;;;;;;;16.77;10.02;;;21.00;96.70;;;;;;4863417;29;20177;-58
2023/06/01 11:42:12;;;;;;;14.40;9.93;;;20.70;97.70;;;;;;4863711;29;20182;-58
2023/06/01 11:44:40;;;;;;;16.55;10.13;;;20.70;98.70;;;;;;4863559;29;20206;-58
2023/06/01 11:47:07;;;;;;;14.40;9.98;;;20.80;98.60;;;;;;4863425;29;20253;-58
2023/06/01 11:49:44;;;;;;;16.08;9.80;;;20.90;98.50;;;;;;4863712;29;20644;-59
2023/06/01 11:52:10;;;;;;;14.55;9.90;;;20.80;97.90;;;;;;4863209;29;20220;-59
2023/06/01 11:54:37;;;;;;;12.40;9.88;;;20.90;97.90;;;;;;4863585;29;20179;-58
2023/06/01 11:57:03;;;;;;;14.75;10.07;;;21.00;98.60;;;;;;4863218;29;20234;-58
2023/06/01 11:59:44;;;;;;;11.98;9.20;;;21.20;98.10;;;;;;4863370;29;20261;-58
2023/06/01 12:02:24;;;;;;;17.20;10.80;;;21.40;99.20;;;;;;4863295;29;20243;-58
2023/06/01 12:05:09;;;;;;;13.57;9.55;;;21.40;97.80;;;;;;4863353;29;20266;-58
2023/06/01 12:07:53;;;;;;;13.23;9.75;;;21.40;97.80;;;;;;4846907;29;20238;-58
2023/06/01 12:10:20;;;;;;;16.50;10.15;;;21.50;97.60;;;;;;4863152;29;20178;-58
2023/06/01 12:12:47;;;;;;;15.40;9.10;;;21.40;96.40;;;;;;4862913;29;20308;-59
2023/06/01 12:15:15;;;;;;;12.88;9.35;;;21.20;98.40;;;;;;4862811;29;20225;-58
2023/06/01 12:17:49;;;;;;;15.13;9.45;;;21.20;99.10;;;;;;4863145;29;20201;-58
2023/06/01 12:20:32;;;;;;;11.35;9.02;;;21.30;99.90;;;;;;4862941;29;20194;-58
2023/06/01 12:23:05;;;;;;;12.02;8.48;;;21.10;99.00;;;;;;4862923;29;20644;-58
2023/06/01 12:25:31;;;;;;;12.23;8.43;;;20.90;99.20;;;;;;4862786;29;20205;-58
2023/06/01 12:28:05;;;;;;;10.90;8.32;;;21.00;98.90;;;;;;4862676;29;20648;-58
2023/06/01 12:30:32;;;;;;;11.23;7.35;;;21.10;98.10;;;;;;4862822;29;20206;-58
2023/06/01 12:32:57;;;;;;;13.00;8.68;;;21.10;99.10;;;;;;4861990;29;20237;-58